Time;durP1;ratioP1;P1;durP2;ratioP2;P2;SDS_P1;SDS_P2;PMS_P1;PMS_P2;Temp;Humidity;BMP_temperature;BMP_pressure;BME280_temperature;BME280_humidity;BME280_pressure;Samples;Min_cycle;Max_cycle;Signal;HPM_P1;HPM_P2
2023/09/21 00:01:23;;;;;;;12.98;3.42;;;;;;;;;;4958556;28;20387;-79
2023/09/21 00:03:49;;;;;;;14.10;3.30;;;;;;;;;;4966739;28;20026;-79
2023/09/21 00:06:18;;;;;;;14.63;3.38;;;;;;;;;;4964392;28;20030;-79
2023/09/21 00:08:48;;;;;;;11.90;3.67;;;;;;;;;;4980899;28;20088;-78
2023/09/21 00:11:14;;;;;;;11.50;3.30;;;;;;;;;;4964292;28;20085;-79
2023/09/21 00:13:40;;;;;;;14.27;3.00;;;;;;;;;;4958240;28;20280;-79
2023/09/21 00:16:18;;;;;;;12.10;3.50;;;;;;;;;;4966187;28;20042;-79
2023/09/21 00:18:45;;;;;;;10.07;3.08;;;;;;;;;;4960989;28;20034;-79
2023/09/21 00:21:12;;;;;;;10.35;3.00;;;;;;;;;;4964298;28;20108;-79
2023/09/21 00:23:38;;;;;;;13.80;3.42;;;;;;;;;;4962166;28;20054;-79
2023/09/21 00:26:07;;;;;;;13.68;3.38;;;;;;;;;;4961038;28;20023;-79
2023/09/21 00:28:33;;;;;;;13.90;3.70;;;;;;;;;;4960823;28;20070;-79
2023/09/21 00:31:02;;;;;;;16.98;3.65;;;;;;;;;;4961852;28;20026;-78
2023/09/21 00:33:28;;;;;;;12.63;3.28;;;;;;;;;;4957813;28;20042;-79
2023/09/21 00:35:58;;;;;;;13.65;3.67;;;;;;;;;;4963193;28;20034;-79
2023/09/21 00:38:24;;;;;;;12.00;3.28;;;;;;;;;;4960279;28;20038;-78
2023/09/21 00:40:51;;;;;;;13.73;4.07;;;;;;;;;;4959997;28;20044;-78
2023/09/21 00:43:21;;;;;;;11.55;3.25;;;;;;;;;;4959608;28;20038;-78
2023/09/21 00:45:58;;;;;;;12.80;3.53;;;;;;;;;;4963793;28;20112;-79
2023/09/21 00:48:33;;;;;;;11.02;3.55;;;;;;;;;;4960106;28;20362;-79
2023/09/21 00:51:00;;;;;;;13.27;3.30;;;;;;;;;;4962106;28;20770;-78
2023/09/21 00:53:29;;;;;;;11.75;3.50;;;;;;;;;;4960693;28;20410;-79
2023/09/21 00:56:00;;;;;;;12.18;3.30;;;;;;;;;;4962806;28;20065;-79
2023/09/21 00:58:29;;;;;;;12.43;3.70;;;;;;;;;;4958282;28;20062;-79
2023/09/21 01:00:55;;;;;;;16.70;4.05;;;;;;;;;;4962359;28;20567;-79
2023/09/21 01:03:24;;;;;;;14.05;4.15;;;;;;;;;;4960610;28;20472;-79
2023/09/21 01:05:50;;;;;;;10.77;3.70;;;;;;;;;;4962491;28;20031;-79
2023/09/21 01:08:18;;;;;;;19.67;4.63;;;;;;;;;;4964144;28;20490;-80
2023/09/21 01:10:53;;;;;;;15.98;4.40;;;;;;;;;;4963643;28;20069;-79
2023/09/21 01:13:20;;;;;;;13.55;3.95;;;;;;;;;;4958314;28;20065;-79
2023/09/21 01:15:58;;;;;;;14.52;3.80;;;;;;;;;;4960999;28;20046;-79
2023/09/21 01:18:24;;;;;;;18.23;4.68;;;;;;;;;;4957726;28;20114;-79
2023/09/21 01:20:55;;;;;;;16.63;4.10;;;;;;;;;;4959942;28;20349;-78
2023/09/21 01:23:22;;;;;;;18.50;4.13;;;;;;;;;;4955080;28;20513;-78
2023/09/21 01:25:50;;;;;;;17.58;4.57;;;;;;;;;;4957757;28;20034;-79
2023/09/21 01:28:23;;;;;;;17.67;4.40;;;;;;;;;;4957251;28;20558;-81
2023/09/21 01:30:56;;;;;;;19.13;4.45;;;;;;;;;;4961200;28;20023;-78
2023/09/21 01:33:23;;;;;;;15.82;3.97;;;;;;;;;;4957402;28;20796;-80
2023/09/21 01:35:49;;;;;;;14.38;3.72;;;;;;;;;;4958942;28;20031;-78
2023/09/21 01:38:17;;;;;;;16.98;4.22;;;;;;;;;;4963872;28;20030;-80
2023/09/21 01:40:43;;;;;;;16.08;4.10;;;;;;;;;;4956249;28;20274;-78
2023/09/21 01:43:14;;;;;;;21.65;4.63;;;;;;;;;;4959144;28;20045;-79
2023/09/21 01:45:42;;;;;;;14.88;4.05;;;;;;;;;;4960570;28;20125;-79
2023/09/21 01:48:09;;;;;;;16.42;4.28;;;;;;;;;;4960671;28;20133;-79
2023/09/21 01:50:51;;;;;;;15.05;4.35;;;;;;;;;;4958240;28;20034;-79
2023/09/21 01:53:21;;;;;;;17.45;4.35;;;;;;;;;;4957104;28;20568;-80
2023/09/21 01:55:49;;;;;;;16.10;4.05;;;;;;;;;;4962779;28;20097;-79
2023/09/21 01:58:16;;;;;;;15.65;4.05;;;;;;;;;;4962891;28;20030;-79
2023/09/21 02:00:43;;;;;;;16.13;3.88;;;;;;;;;;4958743;28;20113;-79
2023/09/21 02:03:12;;;;;;;17.33;4.38;;;;;;;;;;4965873;28;20030;-79
2023/09/21 02:05:38;;;;;;;15.52;3.88;;;;;;;;;;4961748;28;20425;-78
2023/09/21 02:08:05;;;;;;;14.77;4.38;;;;;;;;;;4964766;28;20231;-79
2023/09/21 02:10:32;;;;;;;17.45;4.40;;;;;;;;;;4958760;28;20464;-79
2023/09/21 02:13:00;;;;;;;15.65;3.60;;;;;;;;;;4965974;28;20033;-79
2023/09/21 02:15:26;;;;;;;16.52;4.03;;;;;;;;;;4958855;28;20023;-79
2023/09/21 02:17:55;;;;;;;17.02;4.18;;;;;;;;;;4962599;28;20185;-79
2023/09/21 02:20:22;;;;;;;19.25;4.25;;;;;;;;;;4960024;28;20034;-79
2023/09/21 02:22:49;;;;;;;17.45;4.40;;;;;;;;;;4964975;28;20587;-79
2023/09/21 02:25:16;;;;;;;12.93;3.83;;;;;;;;;;4957559;28;20121;-79
2023/09/21 02:27:46;;;;;;;12.50;3.28;;;;;;;;;;4961293;28;20026;-79
2023/09/21 02:30:16;;;;;;;15.18;3.95;;;;;;;;;;4962481;28;20030;-79
2023/09/21 02:32:43;;;;;;;15.98;3.95;;;;;;;;;;4963856;28;20018;-79
2023/09/21 02:35:16;;;;;;;15.82;3.75;;;;;;;;;;4959940;28;20539;-79
2023/09/21 02:37:49;;;;;;;14.05;3.60;;;;;;;;;;4962267;28;20575;-79
2023/09/21 02:40:16;;;;;;;13.55;4.03;;;;;;;;;;4958531;28;20046;-78
2023/09/21 02:42:43;;;;;;;11.52;3.30;;;;;;;;;;4958358;28;20027;-81
2023/09/21 02:45:12;;;;;;;14.73;4.15;;;;;;;;;;4965182;28;22289;-81
2023/09/21 02:47:39;;;;;;;14.80;3.90;;;;;;;;;;4959960;28;20636;-80
2023/09/21 02:50:14;;;;;;;15.00;3.53;;;;;;;;;;4961058;28;20065;-80
2023/09/21 02:52:44;;;;;;;12.57;3.25;;;;;;;;;;4960477;28;20346;-80
2023/09/21 02:55:11;;;;;;;10.88;3.53;;;;;;;;;;4959680;28;20292;-80
2023/09/21 02:57:37;;;;;;;14.07;4.07;;;;;;;;;;4959179;28;20447;-78
2023/09/21 03:00:13;;;;;;;11.77;3.88;;;;;;;;;;4958130;28;20046;-81
2023/09/21 03:02:39;;;;;;;12.82;4.13;;;;;;;;;;4956913;28;20061;-81
2023/09/21 03:05:10;;;;;;;11.60;3.70;;;;;;;;;;4961493;28;20041;-80
2023/09/21 03:07:41;;;;;;;14.93;4.10;;;;;;;;;;4957717;28;20594;-78
2023/09/21 03:10:09;;;;;;;16.55;3.50;;;;;;;;;;4960818;28;20035;-78
2023/09/21 03:12:37;;;;;;;13.32;4.22;;;;;;;;;;4959003;28;20497;-78
2023/09/21 03:15:07;;;;;;;17.15;4.10;;;;;;;;;;4960613;28;20031;-79
2023/09/21 03:17:34;;;;;;;15.35;4.30;;;;;;;;;;4957332;28;20026;-78
2023/09/21 03:20:12;;;;;;;18.73;4.38;;;;;;;;;;4961217;28;20034;-78
2023/09/21 03:22:38;;;;;;;14.48;4.22;;;;;;;;;;4959447;28;20337;-78
2023/09/21 03:25:11;;;;;;;18.08;4.13;;;;;;;;;;4961381;28;20022;-78
2023/09/21 03:27:38;;;;;;;16.90;5.05;;;;;;;;;;4961802;28;20062;-78
2023/09/21 03:30:05;;;;;;;16.50;4.15;;;;;;;;;;4967205;28;20026;-78
2023/09/21 03:32:31;;;;;;;19.55;4.90;;;;;;;;;;4963503;28;20034;-78
2023/09/21 03:34:58;;;;;;;15.63;4.28;;;;;;;;;;4967032;28;20052;-80
2023/09/21 03:37:24;;;;;;;17.42;4.40;;;;;;;;;;4964657;28;20030;-80
2023/09/21 03:39:50;;;;;;;16.63;4.68;;;;;;;;;;4963195;28;20030;-80
2023/09/21 03:42:17;;;;;;;15.38;3.90;;;;;;;;;;4965703;28;20053;-80
2023/09/21 03:44:43;;;;;;;20.10;4.47;;;;;;;;;;4962181;28;20026;-80
2023/09/21 03:47:11;;;;;;;20.10;4.60;;;;;;;;;;4961626;28;20066;-79
2023/09/21 03:49:37;;;;;;;16.13;4.38;;;;;;;;;;4962436;28;20264;-79
2023/09/21 03:52:04;;;;;;;22.55;5.07;;;;;;;;;;4964223;28;20038;-79
2023/09/21 03:54:30;;;;;;;17.92;4.40;;;;;;;;;;4962985;28;20045;-79
2023/09/21 03:56:56;;;;;;;15.45;4.28;;;;;;;;;;4965684;28;20058;-79
2023/09/21 03:59:23;;;;;;;21.52;4.95;;;;;;;;;;4960037;28;20038;-79
2023/09/21 04:01:49;;;;;;;21.65;4.32;;;;;;;;;;4966545;28;20026;-80
2023/09/21 04:04:18;;;;;;;17.02;4.63;;;;;;;;;;4964878;28;20485;-79
2023/09/21 04:06:44;;;;;;;12.85;3.97;;;;;;;;;;4962843;28;20594;-79
2023/09/21 04:09:10;;;;;;;18.13;4.38;;;;;;;;;;4960797;28;20476;-79
2023/09/21 04:11:36;;;;;;;15.43;4.10;;;;;;;;;;4955490;28;20249;-79
2023/09/21 04:14:04;;;;;;;17.85;4.80;;;;;;;;;;4963170;28;20049;-79
2023/09/21 04:16:30;;;;;;;16.42;4.43;;;;;;;;;;4958913;28;20475;-79
2023/09/21 04:18:57;;;;;;;17.42;6.05;;;;;;;;;;4964323;28;20149;-80
2023/09/21 04:21:23;;;;;;;21.40;7.97;;;;;;;;;;4961930;28;20022;-79
2023/09/21 04:23:50;;;;;;;26.35;8.32;;;;;;;;;;4963760;28;20468;-77
2023/09/21 04:26:16;;;;;;;26.00;7.38;;;;;;;;;;4964479;28;20145;-78
2023/09/21 04:28:43;;;;;;;17.80;5.45;;;;;;;;;;4963403;28;20039;-78
2023/09/21 04:31:09;;;;;;;16.95;4.88;;;;;;;;;;4965139;28;20042;-78
2023/09/21 04:33:35;;;;;;;17.23;5.43;;;;;;;;;;4964069;28;20167;-79
2023/09/21 04:36:02;;;;;;;16.27;4.40;;;;;;;;;;4964942;28;20639;-78
2023/09/21 04:38:28;;;;;;;17.23;5.22;;;;;;;;;;4963686;28;20038;-78
2023/09/21 04:40:54;;;;;;;18.05;5.30;;;;;;;;;;4964543;28;20026;-78
2023/09/21 04:43:21;;;;;;;19.65;5.80;;;;;;;;;;4962546;28;20030;-78
2023/09/21 04:45:51;;;;;;;17.48;5.72;;;;;;;;;;4962462;28;20023;-78
2023/09/21 04:48:17;;;;;;;19.85;5.78;;;;;;;;;;4978402;28;20452;-78
2023/09/21 04:50:46;;;;;;;19.50;6.47;;;;;;;;;;4960440;28;20112;-78
2023/09/21 04:53:13;;;;;;;15.10;5.32;;;;;;;;;;4966123;28;20591;-78
2023/09/21 04:55:40;;;;;;;17.38;5.68;;;;;;;;;;4965448;28;20061;-79
2023/09/21 04:58:06;;;;;;;17.85;6.07;;;;;;;;;;4963565;28;20026;-79
2023/09/21 05:00:32;;;;;;;18.40;5.78;;;;;;;;;;4960400;28;20133;-80
2023/09/21 05:02:59;;;;;;;24.92;7.70;;;;;;;;;;4963787;28;20034;-80
2023/09/21 05:05:26;;;;;;;26.08;10.35;;;;;;;;;;4962496;28;20129;-80
2023/09/21 05:07:53;;;;;;;26.50;10.88;;;;;;;;;;4961740;28;20066;-80
2023/09/21 05:10:19;;;;;;;25.13;12.60;;;;;;;;;;4959817;28;20128;-80
2023/09/21 05:12:47;;;;;;;32.53;13.07;;;;;;;;;;4964411;28;20054;-80
2023/09/21 05:15:15;;;;;;;27.17;12.25;;;;;;;;;;4967741;28;20027;-79
2023/09/21 05:17:41;;;;;;;30.55;13.70;;;;;;;;;;4964193;28;20042;-79
2023/09/21 05:20:11;;;;;;;25.05;11.98;;;;;;;;;;4965131;28;20551;-78
2023/09/21 05:22:40;;;;;;;28.88;12.27;;;;;;;;;;4963227;28;20109;-80
2023/09/21 05:25:06;;;;;;;23.63;9.35;;;;;;;;;;4965870;28;20153;-78
2023/09/21 05:27:32;;;;;;;22.52;8.48;;;;;;;;;;4965783;28;20195;-80
2023/09/21 05:30:04;;;;;;;27.45;8.35;;;;;;;;;;4971522;28;20037;-78
2023/09/21 05:32:32;;;;;;;17.40;6.63;;;;;;;;;;4963868;28;20172;-78
2023/09/21 05:34:59;;;;;;;19.65;5.85;;;;;;;;;;4968551;28;20031;-81
2023/09/21 05:37:25;;;;;;;24.55;5.60;;;;;;;;;;4966713;28;20061;-79
2023/09/21 05:39:54;;;;;;;19.25;5.53;;;;;;;;;;4966299;28;20351;-79
2023/09/21 05:42:23;;;;;;;18.23;5.32;;;;;;;;;;4963542;28;20042;-79
2023/09/21 05:44:50;;;;;;;25.58;5.00;;;;;;;;;;4965274;28;20038;-79
2023/09/21 05:47:16;;;;;;;18.23;5.38;;;;;;;;;;4963536;28;20027;-80
2023/09/21 05:49:43;;;;;;;18.52;5.22;;;;;;;;;;4961934;28;20129;-79
2023/09/21 05:52:13;;;;;;;25.50;5.65;;;;;;;;;;4967610;28;20035;-79
2023/09/21 05:54:42;;;;;;;17.73;4.93;;;;;;;;;;4961946;28;20093;-79
2023/09/21 05:57:08;;;;;;;17.63;5.45;;;;;;;;;;4968076;28;20038;-80
2023/09/21 05:59:36;;;;;;;21.98;5.50;;;;;;;;;;4963160;28;20345;-79
2023/09/21 06:02:05;;;;;;;21.77;5.18;;;;;;;;;;4967783;28;20038;-79
2023/09/21 06:04:31;;;;;;;20.13;5.30;;;;;;;;;;4966432;28;20128;-80
2023/09/21 06:06:58;;;;;;;18.42;5.28;;;;;;;;;;4966013;28;20026;-79
2023/09/21 06:09:25;;;;;;;20.13;5.70;;;;;;;;;;4967327;28;20625;-79
2023/09/21 06:11:51;;;;;;;20.77;5.47;;;;;;;;;;4964826;28;20893;-79
2023/09/21 06:14:18;;;;;;;18.70;5.38;;;;;;;;;;4963302;28;20121;-79
2023/09/21 06:16:45;;;;;;;15.80;5.45;;;;;;;;;;4964467;28;20054;-79
2023/09/21 06:19:13;;;;;;;17.58;4.93;;;;;;;;;;4963224;28;20042;-79
2023/09/21 06:21:42;;;;;;;20.10;5.38;;;;;;;;;;4977753;28;21908;-79
2023/09/21 06:24:09;;;;;;;22.08;5.10;;;;;;;;;;4962926;28;20101;-80
2023/09/21 06:26:36;;;;;;;18.27;4.93;;;;;;;;;;4961710;28;20034;-80
2023/09/21 06:29:03;;;;;;;18.88;4.95;;;;;;;;;;4964958;28;20070;-79
2023/09/21 06:31:29;;;;;;;17.20;4.70;;;;;;;;;;4962363;28;20061;-81
2023/09/21 06:33:58;;;;;;;16.90;5.00;;;;;;;;;;4965663;28;20026;-81
2023/09/21 06:36:28;;;;;;;20.23;5.32;;;;;;;;;;4963291;28;20049;-81
2023/09/21 06:38:58;;;;;;;19.98;5.57;;;;;;;;;;4965245;28;20041;-81
2023/09/21 06:41:25;;;;;;;19.60;5.07;;;;;;;;;;4959827;28;20022;-80
2023/09/21 06:43:51;;;;;;;19.60;5.13;;;;;;;;;;4964608;28;20068;-80
2023/09/21 06:46:18;;;;;;;21.95;5.72;;;;;;;;;;4967945;28;20045;-81
2023/09/21 06:48:45;;;;;;;20.02;5.05;;;;;;;;;;4962873;28;20042;-79
2023/09/21 06:51:12;;;;;;;17.42;4.82;;;;;;;;;;4967812;28;20453;-79
2023/09/21 06:53:38;;;;;;;21.52;5.30;;;;;;;;;;4962880;28;20030;-80
2023/09/21 06:56:05;;;;;;;21.80;5.40;;;;;;;;;;4967213;28;20026;-79
2023/09/21 06:58:32;;;;;;;20.45;5.30;;;;;;;;;;4964359;28;20272;-79
2023/09/21 07:00:58;;;;;;;21.92;5.20;;;;;;;;;;4966334;28;20077;-79
2023/09/21 07:03:24;;;;;;;19.05;5.10;;;;;;;;;;4967374;28;20066;-81
2023/09/21 07:05:51;;;;;;;20.75;5.45;;;;;;;;;;4971758;28;20105;-81
2023/09/21 07:08:17;;;;;;;21.85;5.05;;;;;;;;;;4971265;28;20131;-81
2023/09/21 07:10:44;;;;;;;19.48;5.15;;;;;;;;;;4970829;28;20034;-80
2023/09/21 07:13:11;;;;;;;16.75;5.05;;;;;;;;;;4970203;28;20102;-80
2023/09/21 07:15:38;;;;;;;17.48;4.85;;;;;;;;;;4971862;28;20027;-80
2023/09/21 07:18:09;;;;;;;21.02;5.10;;;;;;;;;;4975604;28;20101;-80
2023/09/21 07:20:35;;;;;;;21.70;5.57;;;;;;;;;;4973487;28;20026;-81
2023/09/21 07:23:02;;;;;;;22.08;5.78;;;;;;;;;;4973092;28;20032;-79
2023/09/21 07:25:28;;;;;;;23.63;4.63;;;;;;;;;;4970205;28;20045;-79
2023/09/21 07:27:55;;;;;;;23.80;5.57;;;;;;;;;;4971460;28;20034;-79
2023/09/21 07:30:21;;;;;;;21.45;5.38;;;;;;;;;;4970853;28;20670;-79
2023/09/21 07:32:47;;;;;;;21.05;5.60;;;;;;;;;;4976866;28;20034;-78
2023/09/21 07:35:14;;;;;;;20.63;5.50;;;;;;;;;;4974822;28;20050;-79
2023/09/21 07:37:46;;;;;;;18.80;4.45;;;;;;;;;;4974067;28;20033;-78
2023/09/21 07:40:13;;;;;;;16.15;4.97;;;;;;;;;;4981354;28;20047;-81
2023/09/21 07:42:42;;;;;;;20.30;5.85;;;;;;;;;;4980591;28;20038;-79
2023/09/21 07:45:11;;;;;;;21.88;5.45;;;;;;;;;;4988236;28;20054;-79
2023/09/21 07:47:40;;;;;;;20.10;6.18;;;;;;;;;;4977855;28;20030;-79
2023/09/21 07:50:07;;;;;;;20.75;5.25;;;;;;;;;;4978780;28;20038;-80
2023/09/21 07:52:34;;;;;;;17.17;5.07;;;;;;;;;;4983265;28;20049;-80
2023/09/21 07:55:02;;;;;;;17.90;4.80;;;;;;;;;;4985109;28;20428;-79
2023/09/21 07:57:32;;;;;;;21.35;5.25;;;;;;;;;;4981423;28;20113;-79
2023/09/21 07:59:58;;;;;;;21.60;4.93;;;;;;;;;;4989642;28;20047;-78
2023/09/21 08:02:25;;;;;;;17.80;5.05;;;;;;;;;;4986454;28;20037;-79
2023/09/21 08:04:51;;;;;;;23.05;5.10;;;;;;;;;;4991085;28;20452;-79
2023/09/21 08:07:23;;;;;;;20.88;5.30;;;;;;;;;;4989754;28;20404;-79
2023/09/21 08:09:49;;;;;;;18.30;4.90;;;;;;;;;;4990428;28;20079;-79
2023/09/21 08:12:16;;;;;;;19.30;5.18;;;;;;;;;;4982106;28;20051;-78
2023/09/21 08:14:42;;;;;;;17.75;5.30;;;;;;;;;;5001141;28;20049;-80
2023/09/21 08:17:09;;;;;;;24.13;5.47;;;;;;;;;;4982228;28;20047;-80
2023/09/21 08:19:35;;;;;;;19.42;5.05;;;;;;;;;;4986886;28;20045;-79
2023/09/21 08:22:01;;;;;;;24.52;4.90;;;;;;;;;;4984903;28;20030;-80
2023/09/21 08:24:27;;;;;;;18.00;4.80;;;;;;;;;;4979292;28;20480;-80
2023/09/21 08:26:56;;;;;;;19.58;5.55;;;;;;;;;;4986074;28;20033;-80
2023/09/21 08:29:22;;;;;;;22.23;5.00;;;;;;;;;;4978022;28;20097;-79
2023/09/21 08:31:49;;;;;;;21.27;4.93;;;;;;;;;;4986396;28;20118;-79
2023/09/21 08:34:16;;;;;;;16.98;4.28;;;;;;;;;;4980910;28;20034;-79
2023/09/21 08:36:44;;;;;;;20.98;4.65;;;;;;;;;;4979875;28;20041;-79
2023/09/21 08:39:11;;;;;;;18.33;4.90;;;;;;;;;;4979735;28;20037;-79
2023/09/21 08:41:39;;;;;;;19.73;5.10;;;;;;;;;;4979522;28;20044;-79
2023/09/21 08:44:07;;;;;;;20.17;4.78;;;;;;;;;;4978056;28;20035;-79
2023/09/21 08:46:36;;;;;;;20.15;4.88;;;;;;;;;;4981804;28;20025;-80
2023/09/21 08:49:03;;;;;;;17.60;4.95;;;;;;;;;;4978710;28;20034;-79
2023/09/21 08:51:32;;;;;;;18.63;4.95;;;;;;;;;;4982197;28;20037;-80
2023/09/21 08:53:59;;;;;;;20.23;5.22;;;;;;;;;;4981098;28;20022;-79
2023/09/21 08:56:27;;;;;;;16.52;4.60;;;;;;;;;;4977990;28;20046;-79
2023/09/21 08:58:56;;;;;;;20.13;4.93;;;;;;;;;;4980106;28;20027;-80
2023/09/21 09:01:22;;;;;;;16.63;4.22;;;;;;;;;;4976742;28;20030;-79
2023/09/21 09:03:51;;;;;;;22.38;4.68;;;;;;;;;;4977602;28;20033;-79
2023/09/21 09:06:17;;;;;;;18.25;4.65;;;;;;;;;;4976521;28;20037;-79
2023/09/21 09:08:46;;;;;;;15.82;4.28;;;;;;;;;;4974729;28;20041;-79
2023/09/21 09:11:31;;;;;;;15.68;4.15;;;;;;;;;;4980266;28;20047;-79
2023/09/21 09:13:57;;;;;;;19.60;4.88;;;;;;;;;;4981842;28;20100;-79
2023/09/21 09:16:29;;;;;;;15.88;4.43;;;;;;;;;;4979909;28;20033;-79
2023/09/21 09:19:00;;;;;;;19.50;5.03;;;;;;;;;;4981087;28;20077;-80
2023/09/21 09:21:26;;;;;;;14.23;3.85;;;;;;;;;;4973206;28;20114;-80
2023/09/21 09:23:52;;;;;;;16.27;4.38;;;;;;;;;;4979256;28;20669;-79
2023/09/21 09:26:19;;;;;;;16.50;4.57;;;;;;;;;;4971185;28;20026;-80
2023/09/21 09:28:45;;;;;;;18.77;4.38;;;;;;;;;;4980348;28;20026;-79
2023/09/21 09:31:12;;;;;;;15.75;4.22;;;;;;;;;;4976991;28;20146;-80
2023/09/21 09:33:38;;;;;;;16.83;4.40;;;;;;;;;;4979410;28;20030;-79
2023/09/21 09:36:05;;;;;;;15.38;4.40;;;;;;;;;;4979756;28;20805;-79
2023/09/21 09:38:34;;;;;;;19.88;4.65;;;;;;;;;;4973574;28;20026;-79
2023/09/21 09:41:06;;;;;;;15.30;4.30;;;;;;;;;;4978015;28;20031;-79
2023/09/21 09:43:35;;;;;;;18.98;4.50;;;;;;;;;;4978467;28;20416;-79
2023/09/21 09:46:05;;;;;;;16.85;4.35;;;;;;;;;;4975142;28;20022;-80
2023/09/21 09:48:36;;;;;;;18.98;5.15;;;;;;;;;;4976230;28;20045;-79
2023/09/21 09:51:11;;;;;;;18.40;5.00;;;;;;;;;;4974023;28;20039;-79
2023/09/21 09:53:39;;;;;;;15.15;4.40;;;;;;;;;;4968650;28;20078;-79
2023/09/21 09:56:09;;;;;;;15.90;4.18;;;;;;;;;;4978729;28;20557;-79
2023/09/21 09:58:42;;;;;;;18.70;4.78;;;;;;;;;;4974820;28;20026;-79
2023/09/21 10:01:12;;;;;;;20.42;4.35;;;;;;;;;;4972019;28;20809;-80
2023/09/21 10:03:43;;;;;;;21.83;4.57;;;;;;;;;;4976604;28;20034;-80
2023/09/21 10:06:10;;;;;;;16.25;4.10;;;;;;;;;;4972463;28;20030;-80
2023/09/21 10:08:38;;;;;;;19.13;4.10;;;;;;;;;;4976281;28;20219;-80
2023/09/21 10:11:06;;;;;;;17.58;4.35;;;;;;;;;;4969918;28;20148;-79
2023/09/21 10:13:35;;;;;;;18.73;4.45;;;;;;;;;;4972143;28;20171;-80
2023/09/21 10:16:05;;;;;;;17.75;4.47;;;;;;;;;;4970293;28;20045;-80
2023/09/21 10:18:40;;;;;;;18.25;4.47;;;;;;;;;;4966774;28;20628;-80
2023/09/21 10:21:26;;;;;;;15.63;3.95;;;;;;;;;;4969517;28;20127;-79
2023/09/21 10:24:03;;;;;;;21.17;4.78;;;;;;;;;;4967056;28;20228;-80
2023/09/21 10:26:39;;;;;;;15.75;4.28;;;;;;;;;;4968249;28;20035;-79
2023/09/21 10:29:06;;;;;;;16.33;4.28;;;;;;;;;;4971109;28;20466;-80
2023/09/21 10:31:33;;;;;;;19.77;4.20;;;;;;;;;;4966084;28;20038;-79
2023/09/21 10:33:59;;;;;;;17.58;4.47;;;;;;;;;;4972909;28;20050;-78
2023/09/21 10:36:30;;;;;;;14.23;3.83;;;;;;;;;;4965413;28;20030;-78
2023/09/21 10:39:17;;;;;;;18.30;4.50;;;;;;;;;;4967267;28;20551;-80
2023/09/21 10:41:45;;;;;;;19.45;4.60;;;;;;;;;;4971231;28;20034;-80
2023/09/21 10:44:13;;;;;;;15.65;3.92;;;;;;;;;;4972730;28;20014;-80
2023/09/21 10:46:42;;;;;;;17.35;4.25;;;;;;;;;;4966780;28;20085;-77
2023/09/21 10:49:15;;;;;;;18.63;4.13;;;;;;;;;;4966569;28;20030;-80
2023/09/21 10:51:41;;;;;;;17.67;4.07;;;;;;;;;;4963672;28;20448;-79
2023/09/21 10:54:08;;;;;;;20.65;4.38;;;;;;;;;;4964482;28;20038;-79
2023/09/21 10:56:34;;;;;;;17.50;4.30;;;;;;;;;;4959850;28;21091;-82
2023/09/21 10:59:01;;;;;;;18.75;4.03;;;;;;;;;;4964287;28;20125;-79
2023/09/21 11:01:28;;;;;;;21.73;4.32;;;;;;;;;;4958420;28;20034;-82
2023/09/21 11:03:55;;;;;;;20.25;4.40;;;;;;;;;;4964171;28;20114;-80
2023/09/21 11:06:21;;;;;;;18.50;4.53;;;;;;;;;;4963339;28;20251;-80
2023/09/21 11:08:48;;;;;;;16.60;4.32;;;;;;;;;;4966890;28;20041;-80
2023/09/21 11:11:19;;;;;;;14.45;3.80;;;;;;;;;;4968456;28;20133;-80
2023/09/21 11:13:50;;;;;;;16.10;4.03;;;;;;;;;;4964031;28;20082;-80
2023/09/21 11:16:16;;;;;;;17.48;4.00;;;;;;;;;;4963480;28;20574;-80
2023/09/21 11:18:42;;;;;;;16.23;4.43;;;;;;;;;;4967548;28;20038;-80
2023/09/21 11:21:09;;;;;;;16.30;4.03;;;;;;;;;;4966002;28;20031;-79
2023/09/21 11:23:35;;;;;;;15.50;4.10;;;;;;;;;;4960692;28;20367;-79
2023/09/21 11:26:01;;;;;;;15.75;4.10;;;;;;;;;;4959350;28;20142;-80
2023/09/21 11:28:28;;;;;;;16.73;4.40;;;;;;;;;;4958400;28;20495;-79
2023/09/21 11:30:56;;;;;;;17.88;4.28;;;;;;;;;;4963383;28;20041;-79
2023/09/21 11:33:22;;;;;;;15.95;4.47;;;;;;;;;;4960267;28;20562;-80
2023/09/21 11:35:49;;;;;;;17.63;3.97;;;;;;;;;;4962413;28;20026;-81
2023/09/21 11:38:18;;;;;;;18.70;4.20;;;;;;;;;;4962327;28;20118;-79
2023/09/21 11:40:45;;;;;;;15.25;3.95;;;;;;;;;;4961590;28;20030;-80
2023/09/21 11:43:13;;;;;;;18.52;4.15;;;;;;;;;;4963241;28;20034;-80
2023/09/21 11:45:39;;;;;;;22.20;4.25;;;;;;;;;;4961356;28;21589;-80
2023/09/21 11:48:07;;;;;;;17.73;4.13;;;;;;;;;;4963914;28;20433;-80
2023/09/21 11:50:35;;;;;;;19.40;4.63;;;;;;;;;;4968412;28;20152;-80
2023/09/21 11:53:06;;;;;;;15.52;3.83;;;;;;;;;;4964308;28;20039;-79
2023/09/21 11:55:33;;;;;;;15.32;3.72;;;;;;;;;;4967631;28;20306;-79
2023/09/21 11:58:09;;;;;;;14.13;3.50;;;;;;;;;;4965089;28;20034;-78
2023/09/21 12:00:49;;;;;;;15.25;4.10;;;;;;;;;;4961610;28;20138;-81
2023/09/21 12:03:17;;;;;;;16.73;4.45;;;;;;;;;;4961664;28;20065;-79
2023/09/21 12:05:44;;;;;;;19.45;4.53;;;;;;;;;;4962848;28;20030;-79
2023/09/21 12:08:21;;;;;;;16.00;4.30;;;;;;;;;;4967695;28;20085;-80
2023/09/21 12:10:50;;;;;;;16.50;3.92;;;;;;;;;;4962582;28;20030;-79
2023/09/21 12:13:17;;;;;;;15.50;4.05;;;;;;;;;;4958791;28;20502;-79
2023/09/21 12:15:43;;;;;;;17.45;4.05;;;;;;;;;;4958951;28;20129;-79
2023/09/21 12:18:10;;;;;;;19.55;4.18;;;;;;;;;;4965988;28;20031;-79
2023/09/21 12:20:36;;;;;;;14.90;4.22;;;;;;;;;;4960014;28;20133;-79
2023/09/21 12:23:05;;;;;;;16.60;4.05;;;;;;;;;;4966593;28;20509;-79
2023/09/21 12:25:32;;;;;;;15.73;4.15;;;;;;;;;;4957171;28;20030;-79
2023/09/21 12:27:58;;;;;;;14.85;3.63;;;;;;;;;;4961175;28;20536;-79
2023/09/21 12:30:24;;;;;;;19.33;4.60;;;;;;;;;;4960533;28;20037;-79
2023/09/21 12:32:51;;;;;;;16.95;4.45;;;;;;;;;;4961941;28;20380;-79
2023/09/21 12:35:19;;;;;;;18.17;4.15;;;;;;;;;;4964958;28;20039;-80
2023/09/21 12:37:45;;;;;;;13.82;3.45;;;;;;;;;;4962117;28;20026;-79
2023/09/21 12:40:12;;;;;;;14.50;3.83;;;;;;;;;;4962572;28;20060;-79
2023/09/21 12:42:45;;;;;;;16.90;3.60;;;;;;;;;;4959879;28;20113;-79
2023/09/21 12:45:17;;;;;;;17.73;4.28;;;;;;;;;;4963205;28;20460;-79
2023/09/21 12:47:44;;;;;;;16.83;4.30;;;;;;;;;;4964351;28;20029;-81
2023/09/21 12:50:11;;;;;;;13.57;4.03;;;;;;;;;;4965244;28;20492;-80
2023/09/21 12:52:39;;;;;;;14.55;4.10;;;;;;;;;;4961353;28;20085;-79
2023/09/21 12:55:06;;;;;;;15.45;4.03;;;;;;;;;;4959883;28;20073;-82
2023/09/21 12:57:35;;;;;;;17.77;3.88;;;;;;;;;;4963319;28;20517;-80
2023/09/21 13:00:08;;;;;;;15.48;4.38;;;;;;;;;;4962603;28;20479;-81
2023/09/21 13:02:34;;;;;;;14.55;3.92;;;;;;;;;;4961453;28;20041;-81
2023/09/21 13:05:00;;;;;;;18.92;4.88;;;;;;;;;;4977427;28;20908;-81
2023/09/21 13:07:27;;;;;;;14.52;4.00;;;;;;;;;;4959699;28;20583;-82
2023/09/21 13:09:53;;;;;;;19.08;4.68;;;;;;;;;;4963392;28;20035;-81
2023/09/21 13:12:19;;;;;;;18.63;3.95;;;;;;;;;;4964865;28;20054;-81
2023/09/21 13:14:46;;;;;;;16.88;4.18;;;;;;;;;;4974111;28;20727;-81
2023/09/21 13:17:13;;;;;;;18.80;4.15;;;;;;;;;;4965028;28;20563;-81
2023/09/21 13:19:39;;;;;;;16.02;4.18;;;;;;;;;;4957944;28;20553;-81
2023/09/21 13:22:06;;;;;;;15.23;3.38;;;;;;;;;;4963469;28;20106;-81
2023/09/21 13:24:32;;;;;;;17.60;4.40;;;;;;;;;;4957809;28;20395;-79
2023/09/21 13:26:58;;;;;;;15.63;3.95;;;;;;;;;;4960724;28;20022;-81
2023/09/21 13:29:25;;;;;;;16.55;4.35;;;;;;;;;;4954956;28;20943;-80
2023/09/21 13:31:51;;;;;;;18.13;4.35;;;;;;;;;;4955662;28;20097;-81
2023/09/21 13:34:18;;;;;;;14.85;3.85;;;;;;;;;;4957331;28;20213;-80
2023/09/21 13:36:45;;;;;;;15.63;3.97;;;;;;;;;;4958418;28;20094;-81
2023/09/21 13:39:12;;;;;;;12.32;4.07;;;;;;;;;;4956642;28;20035;-80
2023/09/21 13:41:40;;;;;;;15.13;3.83;;;;;;;;;;4956637;28;20034;-81
2023/09/21 13:44:06;;;;;;;14.85;3.88;;;;;;;;;;4960826;28;20361;-81
2023/09/21 13:46:32;;;;;;;11.82;3.47;;;;;;;;;;4956245;28;20587;-80
2023/09/21 13:49:00;;;;;;;13.45;3.80;;;;;;;;;;4961700;28;20097;-81
2023/09/21 13:51:29;;;;;;;10.65;3.45;;;;;;;;;;4957928;28;20058;-81
2023/09/21 13:53:55;;;;;;;15.00;3.95;;;;;;;;;;4957006;28;20042;-80
2023/09/21 13:56:22;;;;;;;15.15;4.15;;;;;;;;;;4956996;28;20366;-80
2023/09/21 13:58:48;;;;;;;16.85;3.83;;;;;;;;;;4959689;28;20053;-80
2023/09/21 14:01:16;;;;;;;14.13;4.07;;;;;;;;;;4961486;28;20572;-80
2023/09/21 14:03:42;;;;;;;16.83;4.13;;;;;;;;;;4960080;28;20544;-80
2023/09/21 14:06:08;;;;;;;14.48;3.83;;;;;;;;;;4957806;28;20022;-80
2023/09/21 14:08:35;;;;;;;15.07;3.63;;;;;;;;;;4957627;28;20350;-80
2023/09/21 14:11:01;;;;;;;15.25;3.72;;;;;;;;;;4959464;28;20440;-79
2023/09/21 14:13:28;;;;;;;15.95;4.05;;;;;;;;;;4957802;28;20406;-79
2023/09/21 14:15:54;;;;;;;14.13;4.13;;;;;;;;;;4957623;28;20369;-79
2023/09/21 14:18:21;;;;;;;11.70;3.38;;;;;;;;;;4956188;28;20440;-80
2023/09/21 14:20:47;;;;;;;14.40;3.42;;;;;;;;;;4957206;28;20613;-79
2023/09/21 14:23:13;;;;;;;15.52;3.83;;;;;;;;;;4957578;28;20073;-79
2023/09/21 14:25:39;;;;;;;12.85;3.83;;;;;;;;;;4952446;28;20023;-79
2023/09/21 14:28:05;;;;;;;15.77;3.58;;;;;;;;;;4959081;28;20325;-79
2023/09/21 14:30:32;;;;;;;10.30;2.92;;;;;;;;;;4954163;28;20543;-79
2023/09/21 14:32:58;;;;;;;11.93;3.22;;;;;;;;;;4958158;28;20384;-80